Time;durP1;ratioP1;P1;durP2;ratioP2;P2;SDS_P1;SDS_P2;PMS_P1;PMS_P2;Temp;Humidity;BMP_temperature;BMP_pressure;BME280_temperature;BME280_humidity;BME280_pressure;Samples;Min_cycle;Max_cycle;Signal;HPM_P1;HPM_P2
2023/02/21 02:14:23;;;;;;;0.40;0.25;;;;;;;9.46;41.43;95393.63;5047971;28;20214;-68
2023/02/21 02:17:15;;;;;;;2.40;0.57;;;;;;;9.34;41.25;95388.47;5049044;28;20658;-65
2023/02/21 02:20:20;;;;;;;2.95;2.15;;;;;;;9.50;41.05;95389.53;5049168;28;20232;-69
2023/02/21 02:22:59;;;;;;;0.00;0.00;;;;;;;9.52;41.32;95387.47;5049110;28;20866;-65
2023/02/21 02:25:56;;;;;;;0.00;0.00;;;;;;;9.60;40.86;95389.69;5048810;28;20273;-72
2023/02/21 02:28:37;;;;;;;0.00;0.00;;;;;;;9.49;40.73;95387.94;5047983;28;20206;-67
2023/02/21 02:31:38;;;;;;;0.40;0.38;;;;;;;9.49;41.55;95382.72;5047405;28;20205;-67
2023/02/21 02:34:09;;;;;;;0.20;0.20;;;;;;;9.08;41.80;95392.47;5047578;28;20210;-67
2023/02/21 02:36:48;;;;;;;0.00;0.00;;;;;;;9.25;41.46;95382.03;5048495;28;20218;-70
2023/02/21 02:39:28;;;;;;;0.98;0.60;;;;;;;9.44;41.20;95385.22;5047675;28;20204;-65
2023/02/21 02:42:01;;;;;;;0.28;0.28;;;;;;;9.46;41.36;95385.78;5048530;28;20227;-67
2023/02/21 02:44:38;;;;;;;0.00;0.00;;;;;;;9.43;41.57;95383.66;5049126;28;20204;-65
2023/02/21 02:47:13;;;;;;;0.65;0.65;;;;;;;9.37;41.08;95367.06;5050188;28;20309;-69
2023/02/21 02:49:43;;;;;;;0.65;0.50;;;;;;;9.28;41.52;95350.19;5047811;28;20208;-65
2023/02/21 02:52:10;;;;;;;0.00;0.00;;;;;;;9.46;40.92;95367.47;5052582;28;20195;-69
2023/02/21 02:54:37;;;;;;;0.10;0.10;;;;;;;9.44;41.33;95380.00;5054919;28;21019;-71
2023/02/21 02:57:09;;;;;;;0.03;0.03;;;;;;;9.28;41.67;95380.75;5048015;28;20761;-68
2023/02/21 02:59:41;;;;;;;0.10;0.10;;;;;;;9.31;41.46;95373.25;5048761;28;20197;-66
2023/02/21 03:02:47;;;;;;;0.00;0.00;;;;;;;9.20;41.69;95374.09;5047331;28;20231;-66
2023/02/21 03:05:28;;;;;;;0.10;0.10;;;;;;;8.18;43.99;95385.34;5048695;28;20220;-66
2023/02/21 03:08:10;;;;;;;0.08;0.08;;;;;;;8.35;43.25;95377.66;5048421;28;20206;-67
2023/02/21 03:10:53;;;;;;;0.82;0.65;;;;;;;8.05;44.06;95386.38;5051314;28;20262;-69
2023/02/21 03:13:41;;;;;;;0.00;0.00;;;;;;;8.01;43.94;95377.41;5053185;28;20219;-68
2023/02/21 03:16:33;;;;;;;0.10;0.10;;;;;;;8.43;43.61;95390.38;5064255;28;20227;-63
2023/02/21 03:19:08;;;;;;;0.00;0.00;;;;;;;7.78;44.63;95381.84;5050905;28;20237;-68
2023/02/21 03:22:09;;;;;;;0.73;0.73;;;;;;;8.05;44.05;95375.16;5050852;28;20234;-72
2023/02/21 03:24:40;;;;;;;0.00;0.00;;;;;;;8.49;43.23;95382.41;5050958;28;20296;-64
2023/02/21 03:27:09;;;;;;;0.00;0.00;;;;;;;8.04;43.90;95374.38;5050777;28;20200;-66
2023/02/21 03:29:45;;;;;;;0.08;0.08;;;;;;;7.98;44.73;95384.91;5052505;28;20204;-65
2023/02/21 03:34:48;;;;;;;0.20;0.20;;;;;;;8.05;44.07;95364.72;5050807;28;20749;-68
2023/02/21 03:37:39;;;;;;;0.00;0.00;;;;;;;8.07;44.13;95373.09;5050736;28;20232;-69
2023/02/21 03:40:31;;;;;;;0.10;0.10;;;;;;;8.70;42.73;95360.09;5050495;28;20247;-69
2023/02/21 03:43:02;;;;;;;0.00;0.00;;;;;;;8.26;43.47;95366.78;5050303;28;20197;-71
2023/02/21 03:45:34;;;;;;;2.25;0.90;;;;;;;8.65;43.03;95376.44;5049623;28;20258;-70
2023/02/21 03:48:11;;;;;;;0.00;0.00;;;;;;;8.80;42.42;95362.88;5050805;28;20208;-68
2023/02/21 03:50:50;;;;;;;0.00;0.00;;;;;;;8.80;42.36;95366.31;5056396;28;20214;-65
2023/02/21 03:53:18;;;;;;;0.10;0.10;;;;;;;8.86;41.81;95372.41;5058973;28;20659;-64
2023/02/21 03:55:45;;;;;;;15.35;3.00;;;;;;;8.90;42.27;95368.31;5051727;28;20278;-65
2023/02/21 03:58:17;;;;;;;0.80;0.63;;;;;;;8.89;42.26;95382.41;5050698;28;20200;-68
2023/02/21 04:00:44;;;;;;;0.00;0.00;;;;;;;8.94;42.04;95380.69;5050011;28;20333;-68
2023/02/21 04:03:12;;;;;;;0.05;0.05;;;;;;;9.12;42.23;95384.94;5051305;28;20687;-68
2023/02/21 04:05:59;;;;;;;0.00;0.00;;;;;;;8.98;42.14;95379.19;5050920;28;20905;-66
2023/02/21 04:08:27;;;;;;;0.20;0.20;;;;;;;8.95;41.93;95376.25;5050152;28;20196;-66
2023/02/21 04:10:54;;;;;;;0.00;0.00;;;;;;;8.95;41.98;95384.91;5051366;28;20292;-66
2023/02/21 04:13:24;;;;;;;1.35;0.95;;;;;;;9.06;41.68;95389.28;5052053;28;20863;-67
2023/02/21 04:15:53;;;;;;;0.00;0.00;;;;;;;9.27;41.47;95384.41;5052845;28;20320;-62
2023/02/21 04:18:21;;;;;;;0.38;0.38;;;;;;;8.95;42.09;95371.03;5063242;28;20236;-63
2023/02/21 04:20:51;;;;;;;0.57;0.57;;;;;;;8.96;42.38;95391.69;5055222;28;20247;-69
2023/02/21 04:23:19;;;;;;;0.30;0.22;;;;;;;8.99;42.33;95393.88;5049878;28;20299;-65
2023/02/21 04:25:47;;;;;;;0.03;0.03;;;;;;;8.69;42.45;95395.88;5049550;28;20196;-68
2023/02/21 04:28:20;;;;;;;0.00;0.00;;;;;;;8.81;42.45;95401.84;5049906;28;20208;-67
2023/02/21 04:30:47;;;;;;;0.65;0.65;;;;;;;8.59;42.47;95403.50;5049402;28;20205;-72
2023/02/21 04:33:15;;;;;;;1.00;0.68;;;;;;;8.69;42.58;95410.75;5053047;28;20236;-67
2023/02/21 04:35:42;;;;;;;0.43;0.43;;;;;;;8.67;42.55;95410.97;5050500;28;20212;-66
2023/02/21 04:38:17;;;;;;;0.00;0.00;;;;;;;8.84;42.38;95426.72;5049813;28;20198;-68
2023/02/21 04:40:44;;;;;;;0.00;0.00;;;;;;;8.45;43.32;95410.00;5050265;28;20270;-72
2023/02/21 04:43:10;;;;;;;0.08;0.08;;;;;;;8.64;42.50;95410.66;5051206;28;20681;-70
2023/02/21 04:45:37;;;;;;;0.32;0.17;;;;;;;8.63;42.44;95407.22;5033490;28;20216;-70
2023/02/21 04:48:04;;;;;;;0.10;0.10;;;;;;;8.66;42.68;95406.78;5049465;28;20246;-75
2023/02/21 04:50:31;;;;;;;1.40;1.30;;;;;;;8.44;43.47;95405.81;5050262;28;20267;-71
2023/02/21 04:52:58;;;;;;;0.00;0.00;;;;;;;8.56;42.78;95398.72;5051298;28;20279;-69
2023/02/21 04:55:25;;;;;;;0.10;0.10;;;;;;;8.74;42.47;95401.19;5053367;28;20850;-63
2023/02/21 04:57:52;;;;;;;1.17;0.98;;;;;;;8.81;42.24;95386.16;5050824;28;20201;-68
2023/02/21 05:00:19;;;;;;;0.10;0.10;;;;;;;8.68;42.48;95383.03;5049520;28;20197;-68
2023/02/21 05:03:03;;;;;;;13.80;2.15;;;;;;;8.46;42.74;95393.31;5050217;28;20769;-67
2023/02/21 05:05:29;;;;;;;2.47;1.10;;;;;;;8.51;43.39;95380.34;5049202;28;20944;-68
2023/02/21 05:07:56;;;;;;;0.00;0.00;;;;;;;8.69;42.63;95382.81;5049812;28;20209;-68
2023/02/21 05:10:23;;;;;;;1.40;0.60;;;;;;;8.76;42.09;95367.78;5049473;28;20211;-67
2023/02/21 05:13:02;;;;;;;0.00;0.00;;;;;;;8.90;42.35;95368.31;5050758;28;20633;-72
2023/02/21 05:15:29;;;;;;;0.00;0.00;;;;;;;8.65;42.48;95365.22;5049927;28;20200;-70
2023/02/21 05:17:56;;;;;;;0.20;0.20;;;;;;;8.60;42.70;95371.13;5050411;28;20651;-68
2023/02/21 05:20:22;;;;;;;0.60;0.60;;;;;;;8.85;42.80;95368.22;5049707;28;20603;-67
2023/02/21 05:22:49;;;;;;;0.00;0.00;;;;;;;8.71;42.89;95370.31;5050545;28;20195;-65
2023/02/21 05:25:18;;;;;;;0.00;0.00;;;;;;;8.84;42.79;95367.44;5058963;28;20640;-67
2023/02/21 05:27:46;;;;;;;0.40;0.40;;;;;;;8.78;42.70;95380.63;5050121;28;20274;-68
2023/02/21 05:30:16;;;;;;;0.28;0.28;;;;;;;8.72;42.42;95374.50;5049259;28;20643;-66
2023/02/21 05:32:43;;;;;;;0.00;0.00;;;;;;;8.67;42.23;95369.19;5049441;28;20220;-67
2023/02/21 05:35:12;;;;;;;0.00;0.00;;;;;;;8.72;42.34;95369.28;5049921;28;20200;-63
2023/02/21 05:37:39;;;;;;;0.00;0.00;;;;;;;8.81;42.20;95386.16;5050070;28;20308;-72
2023/02/21 05:40:09;;;;;;;0.80;0.80;;;;;;;8.52;42.97;95376.72;5049937;28;20277;-65
2023/02/21 05:42:36;;;;;;;0.75;0.32;;;;;;;8.73;42.65;95389.16;5049152;28;20224;-66
2023/02/21 05:45:05;;;;;;;1.27;1.20;;;;;;;8.61;43.14;95385.78;5049161;28;20231;-70
2023/02/21 05:47:33;;;;;;;3.13;2.25;;;;;;;8.55;42.77;95385.91;5050516;28;20204;-68
2023/02/21 05:50:00;;;;;;;0.57;0.57;;;;;;;8.84;43.14;95393.56;5066171;28;20184;-66
2023/02/21 05:52:27;;;;;;;0.47;0.45;;;;;;;8.86;42.34;95403.78;5051178;28;20200;-65
2023/02/21 05:54:54;;;;;;;0.10;0.10;;;;;;;8.61;42.85;95398.06;5061608;28;20193;-67
2023/02/21 05:57:21;;;;;;;0.52;0.30;;;;;;;8.66;42.77;95396.34;5049191;28;20212;-68
2023/02/21 05:59:48;;;;;;;0.17;0.17;;;;;;;8.74;42.28;95395.97;5049541;28;20591;-69
2023/02/21 06:02:15;;;;;;;0.05;0.05;;;;;;;8.94;42.13;95379.91;5049319;28;20287;-68
2023/02/21 06:04:41;;;;;;;0.05;0.05;;;;;;;9.30;41.33;95404.88;5049706;28;20205;-66
2023/02/21 06:07:08;;;;;;;0.15;0.10;;;;;;;9.37;42.36;95400.28;5048396;28;20232;-68
2023/02/21 06:09:35;;;;;;;0.65;0.65;;;;;;;9.39;44.96;95406.06;5049273;28;20193;-69
2023/02/21 06:12:02;;;;;;;0.00;0.00;;;;;;;9.15;43.70;95411.41;5048440;28;20204;-65
2023/02/21 06:14:29;;;;;;;0.38;0.38;;;;;;;9.59;41.64;95409.03;5049032;28;20783;-67
2023/02/21 06:16:56;;;;;;;0.65;0.45;;;;;;;9.71;43.18;95404.50;5047912;28;20667;-67
2023/02/21 06:19:22;;;;;;;0.57;0.50;;;;;;;9.70;42.80;95400.31;5049000;28;20329;-63
2023/02/21 06:21:49;;;;;;;4.05;3.72;;;;;;;9.83;42.30;95405.25;5048817;28;20255;-66
2023/02/21 06:24:16;;;;;;;1.17;1.13;;;;;;;9.79;41.80;95409.38;5049294;28;20234;-68
2023/02/21 06:26:43;;;;;;;0.28;0.28;;;;;;;9.43;41.33;95410.59;5048805;28;20439;-68
2023/02/21 06:29:10;;;;;;;0.20;0.20;;;;;;;9.37;41.29;95406.31;5049365;28;20234;-65
2023/02/21 06:31:37;;;;;;;0.90;0.80;;;;;;;9.31;41.95;95416.91;5048635;28;20252;-63
2023/02/21 06:34:04;;;;;;;0.20;0.20;;;;;;;8.97;42.20;95411.59;5048278;28;20200;-68
2023/02/21 06:36:31;;;;;;;0.20;0.20;;;;;;;9.30;41.88;95410.91;5046534;28;20196;-69
2023/02/21 06:38:58;;;;;;;0.40;0.40;;;;;;;9.49;41.56;95409.66;5047598;28;20200;-69
2023/02/21 06:41:28;;;;;;;0.45;0.45;;;;;;;9.30;41.93;95417.94;5047095;28;20867;-67
2023/02/21 06:43:57;;;;;;;0.40;0.40;;;;;;;10.08;40.43;95419.53;5050700;28;20189;-67
2023/02/21 06:46:27;;;;;;;0.00;0.00;;;;;;;10.49;39.57;95426.16;5050928;28;20204;-67
2023/02/21 06:48:54;;;;;;;1.10;1.00;;;;;;;10.54;39.31;95413.13;5052604;28;20517;-69
2023/02/21 06:51:27;;;;;;;0.00;0.00;;;;;;;10.66;39.54;95407.75;5053067;28;20458;-66
2023/02/21 06:53:56;;;;;;;0.57;0.57;;;;;;;10.01;39.78;95390.09;5053291;28;20446;-69
2023/02/21 06:56:23;;;;;;;2.53;0.63;;;;;;;10.65;39.40;95409.63;5053475;28;20193;-67
2023/02/21 06:58:52;;;;;;;0.40;0.40;;;;;;;10.35;39.52;95411.81;5053438;28;20446;-65
2023/02/21 07:01:19;;;;;;;0.13;0.13;;;;;;;11.24;38.15;95403.47;5053806;28;20466;-68
2023/02/21 07:03:46;;;;;;;0.00;0.00;;;;;;;11.60;38.03;95414.31;5054696;28;20468;-66
2023/02/21 07:06:13;;;;;;;2.63;1.03;;;;;;;11.82;37.99;95404.59;5052760;28;20474;-67
2023/02/21 07:08:41;;;;;;;0.43;0.40;;;;;;;11.90;37.60;95399.66;5052342;28;20949;-67
2023/02/21 07:11:08;;;;;;;0.40;0.40;;;;;;;12.02;37.69;95404.75;5052973;28;20529;-70
2023/02/21 07:13:36;;;;;;;0.10;0.10;;;;;;;12.14;37.90;95407.97;5053549;28;20538;-64
2023/02/21 07:16:03;;;;;;;0.47;0.47;;;;;;;12.17;36.75;95413.50;5053045;28;20453;-66
2023/02/21 07:18:30;;;;;;;3.33;1.03;;;;;;;12.30;37.16;95406.25;5054507;28;20531;-67
2023/02/21 07:20:57;;;;;;;0.10;0.10;;;;;;;12.11;36.55;95409.28;5060837;28;20526;-65
2023/02/21 07:23:24;;;;;;;2.50;0.80;;;;;;;12.30;37.06;95417.53;5060611;28;20969;-67
2023/02/21 07:25:51;;;;;;;0.17;0.17;;;;;;;12.28;36.63;95390.72;5052433;28;20447;-64
2023/02/21 07:28:18;;;;;;;0.00;0.00;;;;;;;12.21;36.95;95392.78;5053116;28;20451;-69
2023/02/21 07:30:45;;;;;;;2.03;1.90;;;;;;;12.33;36.82;95395.22;5052667;28;20593;-68
2023/02/21 07:33:12;;;;;;;0.10;0.10;;;;;;;12.39;37.28;95384.47;5051548;28;20447;-66
2023/02/21 07:35:39;;;;;;;0.60;0.60;;;;;;;12.63;37.06;95388.28;5051842;28;20439;-70
2023/02/21 07:38:06;;;;;;;0.67;0.67;;;;;;;12.55;37.01;95380.91;5052510;28;20483;-65
2023/02/21 07:40:33;;;;;;;0.47;0.47;;;;;;;12.69;36.99;95383.84;5052018;28;20442;-68
2023/02/21 07:43:01;;;;;;;0.40;0.40;;;;;;;12.87;36.74;95381.56;5054106;28;20562;-63
2023/02/21 07:45:28;;;;;;;0.27;0.10;;;;;;;12.92;36.97;95378.97;5052394;28;20443;-67
2023/02/21 07:47:54;;;;;;;0.40;0.40;;;;;;;12.68;35.91;95372.53;5057028;28;20465;-63
2023/02/21 07:50:22;;;;;;;0.20;0.20;;;;;;;12.65;35.76;95365.16;5054664;28;20470;-69
2023/02/21 07:52:49;;;;;;;0.07;0.07;;;;;;;13.00;35.67;95378.47;5052487;28;20447;-64
2023/02/21 07:55:16;;;;;;;0.50;0.43;;;;;;;13.30;35.48;95358.56;5050361;28;20963;-64
2023/02/21 07:57:44;;;;;;;0.57;0.43;;;;;;;13.42;35.74;95362.53;5052189;28;20438;-68
2023/02/21 08:00:11;;;;;;;0.50;0.50;;;;;;;13.31;36.14;95360.16;5051295;28;20439;-62
2023/02/21 08:02:48;;;;;;;0.50;0.47;;;;;;;13.19;35.41;95361.16;5050399;28;20544;-65
2023/02/21 08:05:16;;;;;;;0.00;0.00;;;;;;;13.36;35.89;95357.53;5051519;28;20442;-68
2023/02/21 08:07:43;;;;;;;0.10;0.10;;;;;;;13.50;35.67;95345.44;5052657;28;20442;-66
2023/02/21 08:10:11;;;;;;;0.00;0.00;;;;;;;13.55;35.56;95353.34;5051445;28;20447;-69
2023/02/21 08:12:38;;;;;;;0.03;0.03;;;;;;;13.35;35.06;95345.41;5051351;28;20464;-66
2023/02/21 08:15:05;;;;;;;0.33;0.33;;;;;;;13.56;35.97;95352.28;5051455;28;20447;-65
2023/02/21 08:17:32;;;;;;;0.20;0.20;;;;;;;13.50;35.61;95345.44;5051433;28;20884;-66
2023/02/21 08:19:58;;;;;;;0.27;0.27;;;;;;;13.59;35.35;95341.22;5051628;28;20838;-64
2023/02/21 08:22:25;;;;;;;0.50;0.30;;;;;;;13.59;35.13;95346.50;5051276;28;20482;-66
2023/02/21 08:24:52;;;;;;;0.20;0.20;;;;;;;13.50;35.46;95343.59;5051643;28;20965;-64
2023/02/21 08:27:19;;;;;;;1.13;0.97;;;;;;;13.53;35.09;95350.19;5051072;28;20933;-68
2023/02/21 08:29:48;;;;;;;0.57;0.40;;;;;;;13.46;34.53;95339.13;5051597;28;20439;-67
2023/02/21 08:32:17;;;;;;;1.80;1.20;;;;;;;13.85;34.86;95346.22;5051601;28;20497;-66
2023/02/21 08:34:45;;;;;;;6.23;0.87;;;;;;;13.95;34.32;95334.91;5051462;28;20478;-66
2023/02/21 08:37:21;;;;;;;0.17;0.17;;;;;;;13.98;34.39;95321.97;5050477;28;20542;-65
2023/02/21 08:39:51;;;;;;;0.40;0.40;;;;;;;14.20;34.15;95332.22;5051394;28;20446;-63
2023/02/21 08:42:18;;;;;;;0.10;0.10;;;;;;;14.31;34.77;95318.00;5049955;28;20479;-65
2023/02/21 08:44:46;;;;;;;0.83;0.67;;;;;;;14.41;34.18;95328.53;5049603;28;20442;-68
2023/02/21 08:47:15;;;;;;;0.00;0.00;;;;;;;14.50;34.09;95326.91;5050527;28;20439;-65
2023/02/21 08:49:46;;;;;;;0.10;0.10;;;;;;;14.53;34.32;95326.38;5051284;28;20447;-67
2023/02/21 08:52:15;;;;;;;0.27;0.27;;;;;;;14.40;34.55;95329.56;5050142;28;20520;-65
2023/02/21 08:54:43;;;;;;;0.33;0.33;;;;;;;14.76;33.70;95323.09;5050698;28;20458;-71
2023/02/21 08:57:11;;;;;;;0.40;0.40;;;;;;;14.83;34.04;95331.53;5050038;28;20497;-66
2023/02/21 08:59:43;;;;;;;0.10;0.10;;;;;;;14.79;33.53;95322.59;5051378;28;20757;-63
2023/02/21 09:02:16;;;;;;;0.17;0.17;;;;;;;14.76;32.96;95319.69;5061882;28;20475;-65
2023/02/21 09:04:46;;;;;;;0.30;0.30;;;;;;;14.70;33.27;95329.47;5052083;28;20576;-65
2023/02/21 09:07:15;;;;;;;0.30;0.30;;;;;;;15.04;33.62;95317.16;5052604;28;20518;-63
2023/02/21 09:09:43;;;;;;;0.10;0.10;;;;;;;15.08;33.52;95312.94;5055581;28;20556;-68
2023/02/21 09:12:10;;;;;;;0.10;0.10;;;;;;;15.15;33.35;95281.75;5050524;28;21091;-65
2023/02/21 09:14:40;;;;;;;0.30;0.30;;;;;;;15.33;33.18;95295.38;5050830;28;20530;-67
2023/02/21 09:17:11;;;;;;;2.37;1.40;;;;;;;15.49;33.02;95294.97;5050209;28;20501;-66
2023/02/21 09:19:39;;;;;;;0.10;0.10;;;;;;;15.64;33.07;95299.34;5050299;28;20470;-63
2023/02/21 09:22:08;;;;;;;1.87;1.77;;;;;;;16.01;33.05;95294.28;5049465;28;20508;-64
2023/02/21 09:24:35;;;;;;;5.60;3.80;;;;;;;15.80;31.78;95298.19;5052195;28;20442;-65
2023/02/21 09:27:02;;;;;;;0.90;0.87;;;;;;;15.67;32.19;95298.81;5050495;28;20942;-64
2023/02/21 09:29:31;;;;;;;3.30;0.53;;;;;;;15.68;32.02;95289.81;5048900;28;20455;-62
2023/02/21 09:32:11;;;;;;;5.93;1.30;;;;;;;15.45;32.20;95301.09;5049765;28;20478;-63
2023/02/21 09:34:38;;;;;;;0.60;0.60;;;;;;;15.45;31.45;95290.53;5050114;28;20868;-66
2023/02/21 09:37:05;;;;;;;1.67;1.17;;;;;;;16.25;32.19;95284.53;5049191;28;20447;-67
2023/02/21 09:39:32;;;;;;;0.23;0.23;;;;;;;16.67;30.20;95286.44;5050146;28;20969;-64
2023/02/21 09:41:59;;;;;;;0.20;0.20;;;;;;;16.74;31.11;95265.72;5049498;28;20512;-64
2023/02/21 09:44:28;;;;;;;0.20;0.20;;;;;;;17.05;30.87;95262.38;5050002;28;20550;-66
2023/02/21 09:47:06;;;;;;;0.10;0.10;;;;;;;17.28;30.28;95259.94;5049072;28;20960;-66
2023/02/21 09:49:37;;;;;;;1.27;0.77;;;;;;;17.76;29.95;95266.59;5050169;28;20826;-65
2023/02/21 09:52:14;;;;;;;0.33;0.33;;;;;;;17.52;29.48;95239.44;5049449;28;20582;-64
2023/02/21 09:54:49;;;;;;;0.20;0.20;;;;;;;18.07;29.63;95257.03;5050045;28;20446;-67
2023/02/21 09:57:17;;;;;;;0.40;0.40;;;;;;;18.41;28.46;95228.28;5049686;28;20534;-64
2023/02/21 09:59:45;;;;;;;1.90;1.50;;;;;;;17.83;28.49;95251.09;5051167;28;20447;-67
2023/02/21 10:02:34;;;;;;;0.60;0.60;;;;;;;17.78;28.22;95245.91;5060139;28;20528;-64
2023/02/21 10:05:29;;;;;;;0.50;0.50;;;;;;;18.74;27.38;95234.28;5049682;28;20445;-69
2023/02/21 10:08:03;;;;;;;2.13;1.67;;;;;;;19.06;27.09;95234.09;5049320;28;20435;-67
2023/02/21 10:10:51;;;;;;;0.60;0.60;;;;;;;19.20;27.22;95224.22;5049151;28;20450;-68
2023/02/21 10:13:50;;;;;;;0.13;0.13;;;;;;;18.58;27.28;95217.88;5049671;28;20451;-67
2023/02/21 10:16:25;;;;;;;0.67;0.67;;;;;;;18.94;26.75;95220.56;5048551;28;20442;-68
2023/02/21 10:18:52;;;;;;;0.30;0.30;;;;;;;19.04;27.12;95223.00;5048313;28;20462;-66
2023/02/21 10:21:32;;;;;;;1.70;1.60;;;;;;;19.27;27.07;95211.28;5049105;28;20850;-69
2023/02/21 10:24:08;;;;;;;0.37;0.37;;;;;;;19.15;26.45;95205.72;5049193;28;20486;-64
2023/02/21 10:26:39;;;;;;;0.30;0.30;;;;;;;19.55;26.57;95198.69;5049184;28;20443;-66
2023/02/21 10:29:21;;;;;;;1.70;0.97;;;;;;;20.26;26.14;95193.09;5047487;28;20446;-66
2023/02/21 10:31:53;;;;;;;0.77;0.53;;;;;;;20.58;26.21;95187.41;5043487;28;20458;-65
2023/02/21 10:34:26;;;;;;;1.90;1.43;;;;;;;20.46;25.98;95184.56;5044147;28;20438;-68
2023/02/21 10:37:14;;;;;;;0.53;0.53;;;;;;;20.45;25.03;95187.53;5048850;28;20960;-65
2023/02/21 10:39:50;;;;;;;2.83;1.03;;;;;;;20.46;24.59;95171.25;5049849;28;20439;-69
2023/02/21 10:42:43;;;;;;;0.20;0.20;;;;;;;20.50;24.74;95158.88;5048871;28;20474;-65
2023/02/21 10:45:15;;;;;;;0.97;0.70;;;;;;;20.80;24.86;95163.28;5048918;28;20583;-65
2023/02/21 10:48:06;;;;;;;1.27;1.20;;;;;;;21.05;24.04;95141.25;5050396;28;20446;-65
2023/02/21 10:50:43;;;;;;;0.30;0.30;;;;;;;21.22;24.35;95142.34;5049851;28;20804;-66
2023/02/21 10:53:46;;;;;;;1.73;1.07;;;;;;;20.18;23.55;95148.66;5049640;28;20991;-67
2023/02/21 10:56:19;;;;;;;0.80;0.80;;;;;;;20.36;23.99;95134.28;5079720;28;20473;-66
2023/02/21 10:58:50;;;;;;;0.53;0.53;;;;;;;20.81;24.00;95132.91;5065725;28;20446;-64
2023/02/21 11:01:29;;;;;;;0.53;0.50;;;;;;;21.13;24.48;95123.66;5048646;28;20479;-67
2023/02/21 11:04:23;;;;;;;0.10;0.10;;;;;;;21.14;22.02;95115.38;5049492;28;20532;-70
2023/02/21 11:06:57;;;;;;;0.10;0.10;;;;;;;21.15;21.42;95116.13;5050432;28;20555;-68
2023/02/21 11:09:26;;;;;;;0.40;0.40;;;;;;;21.18;21.44;95108.28;5049310;28;20454;-62
2023/02/21 11:12:17;;;;;;;0.10;0.10;;;;;;;21.14;19.94;95095.94;5059671;28;20461;-64
2023/02/21 11:14:49;;;;;;;0.30;0.30;;;;;;;21.22;20.10;95089.03;5058389;28;20450;-64
2023/02/21 11:17:23;;;;;;;0.17;0.17;;;;;;;21.61;20.78;95083.41;5049711;28;20740;-67
2023/02/21 11:20:05;;;;;;;0.10;0.10;;;;;;;21.70;19.90;95078.81;5049241;28;20231;-65
2023/02/21 11:22:38;;;;;;;0.10;0.10;;;;;;;21.75;20.11;95076.00;5048483;28;20204;-69
2023/02/21 11:25:18;;;;;;;0.10;0.10;;;;;;;21.45;19.59;95077.03;5049167;28;20209;-66
2023/02/21 11:27:59;;;;;;;0.17;0.17;;;;;;;21.87;19.53;95076.13;5049662;28;20212;-66
2023/02/21 11:30:27;;;;;;;0.10;0.10;;;;;;;21.34;19.13;95070.47;5051431;28;20224;-65
2023/02/21 11:32:56;;;;;;;0.10;0.10;;;;;;;21.58;19.70;95071.50;5053014;28;20205;-70
2023/02/21 11:35:28;;;;;;;0.10;0.10;;;;;;;21.97;20.44;95067.72;5065185;28;20541;-63
2023/02/21 11:38:02;;;;;;;0.10;0.10;;;;;;;21.71;19.45;95059.06;5052897;28;20203;-61
2023/02/21 11:40:42;;;;;;;0.20;0.20;;;;;;;21.30;19.49;95069.53;5052027;28;20545;-68
2023/02/21 11:43:24;;;;;;;0.43;0.27;;;;;;;21.08;19.29;95058.00;5052707;28;20239;-64
2023/02/21 11:45:58;;;;;;;0.10;0.10;;;;;;;21.69;19.28;95050.59;5052586;28;20435;-68
2023/02/21 11:48:31;;;;;;;0.07;0.07;;;;;;;21.52;19.37;95051.44;5059706;28;21107;-71
2023/02/21 11:51:06;;;;;;;0.10;0.10;;;;;;;21.50;19.44;95036.88;5054122;28;20546;-65
2023/02/21 11:53:39;;;;;;;0.20;0.20;;;;;;;21.65;19.21;95034.47;5056739;28;20854;-67
2023/02/21 11:56:15;;;;;;;0.50;0.47;;;;;;;21.87;19.22;95036.88;5051834;28;20196;-67
2023/02/21 11:58:47;;;;;;;0.20;0.20;;;;;;;22.19;19.11;95022.06;5058546;28;20192;-63
2023/02/21 12:01:23;;;;;;;0.13;0.13;;;;;;;22.43;18.57;95016.88;5052182;28;20455;-66
2023/02/21 12:04:00;;;;;;;0.17;0.17;;;;;;;22.37;19.54;95012.06;5054221;28;20486;-66
2023/02/21 12:06:38;;;;;;;0.10;0.10;;;;;;;22.58;19.28;95008.31;5051225;28;20655;-66
2023/02/21 12:09:24;;;;;;;0.27;0.27;;;;;;;22.58;18.62;95008.31;5052074;28;20446;-70
2023/02/21 12:12:14;;;;;;;0.20;0.20;;;;;;;22.14;19.22;94998.25;5054108;28;20226;-70
2023/02/21 12:14:52;;;;;;;0.00;0.00;;;;;;;22.56;18.83;94999.84;5063610;28;20806;-73
2023/02/21 12:17:45;;;;;;;0.20;0.20;;;;;;;23.11;18.04;94989.53;5051598;28;20196;-64
2023/02/21 12:20:37;;;;;;;0.20;0.20;;;;;;;21.97;19.05;94990.34;5061496;28;20200;-65
2023/02/21 12:23:12;;;;;;;0.10;0.10;;;;;;;22.40;18.95;94977.47;5053014;28;20235;-65
2023/02/21 12:26:12;;;;;;;0.20;0.20;;;;;;;22.84;18.56;94971.44;5053891;28;20246;-67
2023/02/21 12:28:47;;;;;;;0.10;0.10;;;;;;;23.35;18.64;94966.66;5056204;28;20207;-63
2023/02/21 12:31:52;;;;;;;0.10;0.10;;;;;;;23.27;18.32;94970.16;5051828;28;20254;-70
2023/02/21 12:34:58;;;;;;;0.30;0.30;;;;;;;23.47;18.24;94969.31;5063713;28;20582;-67
2023/02/21 12:37:46;;;;;;;0.57;0.57;;;;;;;23.89;18.00;94954.56;5051103;28;20659;-64
2023/02/21 12:40:33;;;;;;;0.20;0.20;;;;;;;24.38;18.25;94950.69;5054091;28;20204;-65
2023/02/21 12:43:18;;;;;;;0.60;0.60;;;;;;;24.63;18.26;94946.81;5051075;28;20224;-66
2023/02/21 12:45:53;;;;;;;0.00;0.00;;;;;;;24.79;17.23;94950.31;5050544;28;20197;-66
2023/02/21 12:48:36;;;;;;;0.63;0.40;;;;;;;24.91;17.35;94939.53;5051670;28;20211;-67
2023/02/21 12:51:19;;;;;;;0.10;0.10;;;;;;;25.61;16.92;94931.66;5050227;28;20254;-71
2023/02/21 12:54:03;;;;;;;0.20;0.20;;;;;;;25.66;16.71;94939.44;5055895;28;20241;-65
2023/02/21 12:56:39;;;;;;;0.13;0.13;;;;;;;25.68;16.64;94931.81;5055554;28;20197;-68
2023/02/21 12:59:32;;;;;;;0.00;0.00;;;;;;;24.86;16.88;94939.78;5057900;28;20253;-70
2023/02/21 13:02:08;;;;;;;0.10;0.10;;;;;;;25.26;16.74;94933.47;5057766;28;20209;-62
2023/02/21 13:04:45;;;;;;;1.17;0.97;;;;;;;24.84;17.05;94936.66;5059252;28;20319;-63
2023/02/21 13:07:24;;;;;;;1.23;0.73;;;;;;;25.73;16.38;94935.00;5049886;28;20207;-65
2023/02/21 13:09:56;;;;;;;0.50;0.50;;;;;;;26.64;15.67;94930.03;5049170;28;20203;-68
2023/02/21 13:12:34;;;;;;;0.30;0.30;;;;;;;26.40;15.85;94931.13;5048801;28;20208;-67
2023/02/21 13:15:20;;;;;;;0.50;0.40;;;;;;;25.34;16.59;94927.16;5049704;28;20905;-68
2023/02/21 13:17:57;;;;;;;0.30;0.20;;;;;;;24.50;17.04;94931.91;5050935;28;20200;-60
2023/02/21 13:20:30;;;;;;;2.57;0.73;;;;;;;25.50;16.56;94914.53;5056264;28;20265;-65
2023/02/21 13:23:38;;;;;;;0.10;0.10;;;;;;;25.69;16.19;94917.28;5049531;28;20687;-65
2023/02/21 13:26:39;;;;;;;0.10;0.10;;;;;;;25.21;16.50;94912.28;5049975;28;20655;-66
2023/02/21 13:29:18;;;;;;;0.30;0.30;;;;;;;25.25;16.54;94902.44;5053043;28;20207;-69
2023/02/21 13:31:46;;;;;;;0.43;0.40;;;;;;;26.26;16.06;94905.88;5050445;28;20196;-67
2023/02/21 13:34:22;;;;;;;0.20;0.20;;;;;;;26.21;16.01;94900.75;5050149;28;20223;-70
2023/02/21 13:36:50;;;;;;;1.30;0.50;;;;;;;26.02;16.03;94904.97;5050046;28;20200;-64
2023/02/21 13:39:21;;;;;;;0.07;0.07;;;;;;;25.78;16.17;94907.13;5050516;28;20578;-64
2023/02/21 13:41:52;;;;;;;0.10;0.10;;;;;;;27.08;15.41;94911.66;5050567;28;20663;-64
2023/02/21 13:44:27;;;;;;;3.13;1.03;;;;;;;27.90;14.84;94899.09;5050379;28;20714;-69
2023/02/21 13:47:12;;;;;;;0.17;0.17;;;;;;;28.23;14.60;94895.69;5049488;28;20196;-64
2023/02/21 13:49:51;;;;;;;0.33;0.33;;;;;;;28.12;14.39;94887.47;5050421;28;20196;-64
2023/02/21 13:52:18;;;;;;;0.10;0.10;;;;;;;27.67;14.49;94895.69;5049015;28;20230;-67
2023/02/21 13:55:19;;;;;;;0.87;0.87;;;;;;;28.55;13.97;94883.38;5049724;28;20192;-69
2023/02/21 13:57:59;;;;;;;0.20;0.20;;;;;;;29.39;13.86;94888.81;5050854;28;20628;-67
2023/02/21 14:00:26;;;;;;;0.20;0.20;;;;;;;29.47;13.91;94880.38;5050659;28;20192;-70
2023/02/21 14:03:05;;;;;;;0.20;0.20;;;;;;;29.79;13.67;94867.91;5050790;28;20200;-65
2023/02/21 14:05:45;;;;;;;0.40;0.40;;;;;;;29.16;14.04;94872.06;5049705;28;20253;-67
2023/02/21 14:08:49;;;;;;;0.33;0.33;;;;;;;29.63;13.72;94872.78;5049932;28;20208;-68
2023/02/21 14:11:22;;;;;;;0.33;0.33;;;;;;;30.07;13.16;94866.50;5048866;28;20199;-68
2023/02/21 14:13:52;;;;;;;0.20;0.20;;;;;;;28.87;13.95;94873.69;5050133;28;20208;-68
2023/02/21 14:16:46;;;;;;;0.70;0.60;;;;;;;28.46;14.24;94867.47;5051989;28;20196;-68
2023/02/21 14:19:21;;;;;;;0.20;0.20;;;;;;;28.08;14.92;94877.78;5056022;28;20238;-65
2023/02/21 14:21:55;;;;;;;0.77;0.77;;;;;;;27.55;14.64;94864.38;5055483;28;20203;-64
2023/02/21 14:24:25;;;;;;;0.50;0.50;;;;;;;26.79;15.08;94868.13;5052428;28;20577;-67